createdAt,value
2022-11-21T00:01:31.107Z,104602.44
2022-11-21T00:04:01.825Z,104860.72
2022-11-21T00:06:30.479Z,105119.03
2022-11-21T00:08:59.785Z,105119.03
2022-11-21T00:11:29.472Z,105377.34
2022-11-21T00:13:59.207Z,105635.72
2022-11-21T00:16:29.127Z,105377.34
2022-11-21T00:18:58.980Z,105377.34
2022-11-21T00:21:29.563Z,105119.03
2022-11-21T00:23:58.314Z,105119.03
2022-11-21T00:26:28.026Z,104860.72
2022-11-21T00:28:56.933Z,104860.72
2022-11-21T00:31:26.238Z,104860.72
2022-11-21T00:33:55.225Z,105119.03
2022-11-21T00:36:24.061Z,105377.34
2022-11-21T00:38:54.234Z,105635.72
2022-11-21T00:41:23.517Z,105377.34
2022-11-21T00:43:52.509Z,105377.34
2022-11-21T00:46:21.669Z,105635.72
2022-11-21T00:48:50.607Z,105635.72
2022-11-21T00:51:19.225Z,105377.34
2022-11-21T00:53:48.609Z,105119.03
2022-11-21T00:56:18.617Z,105119.03
2022-11-21T00:58:47.133Z,105377.34
2022-11-21T01:01:17.689Z,105635.72
2022-11-21T01:03:47.161Z,105377.34
2022-11-21T01:06:20.026Z,105377.34
2022-11-21T01:08:54.282Z,105635.72
2022-11-21T01:11:26.468Z,105894.09
2022-11-21T01:13:56.047Z,105894.09
2022-11-21T01:16:28.690Z,105635.72
2022-11-21T01:19:07.232Z,105119.03
2022-11-21T01:21:37.118Z,105119.03
2022-11-21T01:24:06.471Z,105377.34
2022-11-21T01:26:38.438Z,105377.34
2022-11-21T01:29:07.264Z,105635.72
2022-11-21T01:31:36.212Z,106152.47
2022-11-21T01:34:05.599Z,106152.47
2022-11-21T01:36:36.249Z,106152.47
2022-11-21T01:39:07.453Z,105635.72
2022-11-21T01:41:39.385Z,105894.09
2022-11-21T01:44:17.263Z,105894.09
2022-11-21T01:46:46.842Z,106152.47
2022-11-21T01:49:19.384Z,105894.09
2022-11-21T01:51:51.862Z,105377.34
2022-11-21T01:54:25.999Z,104860.72
2022-11-21T01:57:00.007Z,105377.34
2022-11-21T01:59:31.568Z,105635.72
2022-11-21T02:02:03.259Z,105377.34
2022-11-21T02:04:34.362Z,105635.72
2022-11-21T02:07:06.489Z,105377.34
2022-11-21T02:09:38.505Z,105377.34
2022-11-21T02:12:13.446Z,104602.44
2022-11-21T02:14:44.802Z,105119.03
2022-11-21T02:17:13.567Z,105635.72
2022-11-21T02:19:56.569Z,105119.03
2022-11-21T02:22:35.719Z,105119.03
2022-11-21T02:25:08.990Z,104344.16
2022-11-21T02:27:37.762Z,104602.44
2022-11-21T02:30:10.303Z,104860.72
2022-11-21T02:32:40.605Z,105377.34
2022-11-21T02:35:10.975Z,105894.09
2022-11-21T02:37:39.910Z,106152.47
2022-11-21T02:40:16.777Z,106410.88
2022-11-21T02:42:52.903Z,106410.88
2022-11-21T02:45:25.400Z,106410.88
2022-11-21T02:48:02.210Z,105894.09
2022-11-21T02:50:34.651Z,105894.09
2022-11-21T02:53:03.859Z,105894.09
2022-11-21T02:55:34.059Z,106152.47
2022-11-21T02:58:05.482Z,106410.88
2022-11-21T03:00:35.612Z,106152.47
2022-11-21T03:03:04.434Z,106152.47
2022-11-21T03:05:33.541Z,106410.88
2022-11-21T03:08:03.069Z,106410.88
2022-11-21T03:10:32.132Z,106669.31
2022-11-21T03:13:04.242Z,106152.47
2022-11-21T03:15:34.714Z,105894.09
2022-11-21T03:18:04.412Z,105894.09
2022-11-21T03:20:34.657Z,105894.09
2022-11-21T03:23:03.832Z,105894.09
2022-11-21T03:25:33.029Z,106152.47
2022-11-21T03:28:01.456Z,105377.34
2022-11-21T03:30:31.423Z,105377.34
2022-11-21T03:33:00.003Z,105119.03
2022-11-21T03:35:29.536Z,104860.72
2022-11-21T03:37:58.865Z,105119.03
2022-11-21T03:40:27.625Z,106152.47
2022-11-21T03:42:56.329Z,106669.31
2022-11-21T03:45:25.447Z,106927.75
2022-11-21T03:47:55.734Z,106927.75
2022-11-21T03:50:24.491Z,106152.47
2022-11-21T03:52:53.167Z,106152.47
2022-11-21T03:55:22.425Z,106410.88
2022-11-21T03:57:51.062Z,106152.47
2022-11-21T04:00:20.256Z,105894.09
2022-11-21T04:02:49.419Z,106669.31
2022-11-21T04:05:19.895Z,106927.75
2022-11-21T04:07:48.700Z,107186.22
2022-11-21T04:10:17.495Z,107444.69
2022-11-21T04:12:46.170Z,107703.22
2022-11-21T04:15:14.894Z,107703.22
2022-11-21T04:17:43.570Z,107444.69
2022-11-21T04:20:13.195Z,107444.69
2022-11-21T04:22:44.071Z,107444.69
2022-11-21T04:25:14.490Z,107186.22
2022-11-21T04:27:46.298Z,106927.75
2022-11-21T04:30:16.088Z,107186.22
2022-11-21T04:32:45.465Z,107186.22
2022-11-21T04:35:14.726Z,107444.69
2022-11-21T04:37:45.362Z,107703.22
2022-11-21T04:40:14.843Z,108220.28
2022-11-21T04:42:43.728Z,107961.72
2022-11-21T04:45:13.096Z,107961.72
2022-11-21T04:47:43.442Z,107703.22
2022-11-21T04:50:14.666Z,107444.69
2022-11-21T04:52:58.704Z,107186.22
2022-11-21T04:55:31.930Z,107186.22
2022-11-21T04:58:01.350Z,106927.75
2022-11-21T05:00:30.209Z,106927.75
2022-11-21T05:03:04.139Z,107186.22
2022-11-21T05:05:33.093Z,107444.69
2022-11-21T05:08:03.186Z,107703.22
2022-11-21T05:10:51.979Z,107703.22
2022-11-21T05:13:22.668Z,107961.72
2022-11-21T05:15:57.714Z,107961.72
2022-11-21T05:18:26.687Z,107961.72
2022-11-21T05:20:55.422Z,107961.72
2022-11-21T05:23:25.856Z,107961.72
2022-11-21T05:25:55.959Z,107444.69
2022-11-21T05:28:24.913Z,107186.22
2022-11-21T05:30:53.806Z,107186.22
2022-11-21T05:33:22.486Z,106927.75
2022-11-21T05:35:51.191Z,107444.69
2022-11-21T05:38:19.912Z,107703.22
2022-11-21T05:40:50.045Z,107703.22
2022-11-21T05:43:36.435Z,107961.72
2022-11-21T05:46:05.107Z,108220.28
2022-11-21T05:48:34.553Z,108220.28
2022-11-21T05:51:03.221Z,108220.28
2022-11-21T05:53:31.998Z,108220.28
2022-11-21T05:56:06.126Z,108478.84
2022-11-21T05:58:36.225Z,108478.84
2022-11-21T06:01:06.664Z,108478.84
2022-11-21T06:03:37.005Z,108737.41
2022-11-21T06:06:08.370Z,108996.00
2022-11-21T06:08:39.976Z,108737.41
2022-11-21T06:11:11.548Z,108737.41
2022-11-21T06:13:40.060Z,108737.41
2022-11-21T06:16:10.815Z,108737.41
2022-11-21T06:18:41.110Z,108996.00
2022-11-21T06:21:11.420Z,109254.63
2022-11-21T06:23:40.330Z,109254.63
2022-11-21T06:26:14.327Z,109254.63
2022-11-21T06:28:44.115Z,109254.63
2022-11-21T06:31:14.206Z,109513.28
2022-11-21T06:33:43.529Z,109513.28
2022-11-21T06:36:14.510Z,109513.28
2022-11-21T06:38:43.165Z,109513.28
2022-11-21T06:41:15.225Z,109771.94
2022-11-21T06:43:44.377Z,109771.94
2022-11-21T06:46:13.961Z,109771.94
2022-11-21T06:48:43.882Z,109771.94
2022-11-21T06:51:15.371Z,110030.59
2022-11-21T06:53:44.254Z,110289.28
2022-11-21T06:56:14.725Z,110289.28
2022-11-21T06:58:44.154Z,110548.00
2022-11-21T07:01:13.663Z,110548.00
2022-11-21T07:03:42.807Z,110806.75
2022-11-21T07:06:12.054Z,110806.75
2022-11-21T07:08:41.302Z,111065.50
2022-11-21T07:11:27.256Z,111065.50
2022-11-21T07:13:57.981Z,111065.50
2022-11-21T07:16:30.962Z,111065.50
2022-11-21T07:19:00.692Z,111065.50
2022-11-21T07:21:29.926Z,111065.50
2022-11-21T07:23:58.501Z,111065.50
2022-11-21T07:26:27.335Z,111324.28
2022-11-21T07:28:57.758Z,111583.06
2022-11-21T07:31:26.993Z,111583.06
2022-11-21T07:33:55.730Z,111841.88
2022-11-21T07:36:24.391Z,111583.06
2022-11-21T07:38:53.790Z,111583.06
2022-11-21T07:41:23.189Z,111583.06
2022-11-21T07:43:51.782Z,111583.06
2022-11-21T07:46:22.374Z,111065.50
2022-11-21T07:48:51.405Z,111065.50
2022-11-21T07:51:20.434Z,111065.50
2022-11-21T07:53:50.241Z,111065.50
2022-11-21T07:56:19.200Z,111065.50
2022-11-21T07:58:48.138Z,111065.50
2022-11-21T08:01:16.757Z,111065.50
2022-11-21T08:03:47.586Z,110806.75
2022-11-21T08:06:16.392Z,110548.00
2022-11-21T08:08:44.924Z,110548.00
2022-11-21T08:11:13.781Z,110548.00
2022-11-21T08:13:43.057Z,110548.00
2022-11-21T08:16:12.404Z,110548.00
2022-11-21T08:18:51.342Z,110289.28
2022-11-21T08:21:20.335Z,110289.28
2022-11-21T08:23:50.338Z,110289.28
2022-11-21T08:26:19.373Z,110030.59
2022-11-21T08:28:48.020Z,109771.94
2022-11-21T08:31:16.617Z,110030.59
2022-11-21T08:33:45.401Z,110030.59
2022-11-21T08:36:16.049Z,110030.59
2022-11-21T08:38:45.118Z,110289.28
2022-11-21T08:41:31.429Z,110289.28
2022-11-21T08:44:00.835Z,110030.59
2022-11-21T08:46:30.425Z,110030.59
2022-11-21T08:48:59.337Z,109771.94
2022-11-21T08:51:29.373Z,109771.94
2022-11-21T08:53:58.519Z,109513.28
2022-11-21T08:56:27.214Z,109513.28
2022-11-21T08:58:56.236Z,109513.28
2022-11-21T09:01:25.304Z,108220.28
2022-11-21T09:03:54.204Z,108478.84
2022-11-21T09:06:23.133Z,108220.28
2022-11-21T09:08:53.213Z,108737.41
2022-11-21T09:11:21.845Z,108996.00
2022-11-21T09:14:10.563Z,109771.94
2022-11-21T09:17:01.859Z,109513.28
2022-11-21T09:19:31.216Z,109254.63
2022-11-21T09:22:00.660Z,109513.28
2022-11-21T09:24:31.235Z,109254.63
2022-11-21T09:27:01.006Z,109254.63
2022-11-21T09:29:30.222Z,109254.63
2022-11-21T09:31:59.035Z,109254.63
2022-11-21T09:34:28.392Z,108737.41
2022-11-21T09:36:57.696Z,108737.41
2022-11-21T09:39:27.041Z,108737.41
2022-11-21T09:42:09.494Z,108478.84
2022-11-21T09:44:57.086Z,108737.41
2022-11-21T09:47:28.839Z,107186.22
2022-11-21T09:50:02.884Z,105894.09
2022-11-21T09:52:38.952Z,104085.91
2022-11-21T09:55:15.645Z,104085.91
2022-11-21T09:57:49.068Z,104085.91
2022-11-21T10:00:22.183Z,105119.03
2022-11-21T10:02:52.447Z,104344.16
2022-11-21T10:05:27.380Z,105119.03
2022-11-21T10:08:03.005Z,104602.44
2022-11-21T10:10:44.908Z,104344.16
2022-11-21T10:13:25.371Z,103827.66
2022-11-21T10:16:01.976Z,104602.44
2022-11-21T10:18:48.104Z,105119.03
2022-11-21T10:21:33.545Z,105119.03
2022-11-21T10:24:22.541Z,105377.34
2022-11-21T10:26:55.923Z,103827.66
2022-11-21T10:29:31.420Z,105119.03
2022-11-21T10:32:05.763Z,104344.16
2022-11-21T10:34:37.890Z,104344.16
2022-11-21T10:37:17.144Z,105119.03
2022-11-21T10:39:49.717Z,105635.72
2022-11-21T10:42:29.815Z,104860.72
2022-11-21T10:45:16.695Z,103827.66
2022-11-21T10:47:47.219Z,102020.53
2022-11-21T10:50:40.638Z,103053.06
2022-11-21T10:53:35.310Z,102536.75
2022-11-21T10:56:06.864Z,101504.38
2022-11-21T10:58:41.429Z,101246.34
2022-11-21T11:01:23.566Z,99698.47
2022-11-21T11:04:44.044Z,99440.56
2022-11-21T11:07:24.982Z,98924.81
2022-11-21T11:09:54.922Z,98151.31
2022-11-21T11:12:50.146Z,97120.22
2022-11-21T11:15:22.072Z,97635.72
2022-11-21T11:18:03.972Z,98409.13
2022-11-21T11:20:39.667Z,98666.94
2022-11-21T11:23:28.099Z,97120.22
2022-11-21T11:25:58.602Z,96347.13
2022-11-21T11:28:28.447Z,97120.22
2022-11-21T11:30:57.395Z,97120.22
2022-11-21T11:33:37.195Z,96862.50
2022-11-21T11:36:15.529Z,95059.00
2022-11-21T11:38:53.891Z,93513.91
2022-11-21T11:42:05.790Z,93771.38
2022-11-21T11:45:00.046Z,87597.34
2022-11-21T11:47:33.473Z,88625.56
2022-11-21T11:50:13.306Z,87083.34
2022-11-21T11:52:52.641Z,87597.34
2022-11-21T11:55:26.043Z,81947.50
2022-11-21T11:57:58.014Z,77331.78
2022-11-21T12:00:33.806Z,74770.16
2022-11-21T12:03:11.589Z,75794.56
2022-11-21T12:05:53.547Z,69868.41
2022-11-21T12:08:43.525Z,65979.22
2022-11-21T12:11:37.182Z,61054.19
2022-11-21T12:14:35.641Z,60203.50
2022-11-21T12:17:07.781Z,61917.06
2022-11-21T12:19:38.109Z,59161.84
2022-11-21T12:22:11.806Z,60070.03
2022-11-21T12:24:43.185Z,58759.63
2022-11-21T12:27:28.815Z,58204.13
2022-11-21T12:30:09.898Z,57107.38
2022-11-21T12:32:57.161Z,56645.69
2022-11-21T12:35:41.665Z,57091.44
2022-11-21T12:38:24.570Z,57188.97
2022-11-21T12:41:33.315Z,56582.00
2022-11-21T12:44:15.304Z,56271.59
2022-11-21T12:46:56.655Z,56267.63
2022-11-21T12:49:54.542Z,56132.31
2022-11-21T12:52:48.592Z,56014.94
2022-11-21T12:55:35.337Z,55692.66
2022-11-21T12:58:27.844Z,55774.22
2022-11-21T13:01:29.607Z,55579.25
2022-11-21T13:04:02.081Z,55308.72
2022-11-21T13:06:33.537Z,55050.16
2022-11-21T13:09:07.366Z,55028.25
2022-11-21T13:12:00.060Z,55022.31
2022-11-21T13:14:39.370Z,54875.13
2022-11-21T13:17:22.270Z,54785.63
2022-11-21T13:19:55.814Z,54684.19
2022-11-21T13:22:54.094Z,54710.06
2022-11-21T13:25:52.953Z,54638.44
2022-11-21T13:28:40.328Z,54765.72
2022-11-21T13:31:29.261Z,54803.53
2022-11-21T13:33:58.058Z,54781.66
2022-11-21T13:36:42.028Z,54825.41
2022-11-21T13:39:38.256Z,54741.88
2022-11-21T13:42:29.552Z,54737.88
2022-11-21T13:45:00.895Z,54789.59
2022-11-21T13:48:06.142Z,54747.84
2022-11-21T13:51:16.689Z,54841.31
2022-11-21T13:54:11.143Z,54747.84
2022-11-21T13:56:54.829Z,54819.44
2022-11-21T13:59:40.629Z,54861.19
2022-11-21T14:02:48.201Z,54837.34
2022-11-21T14:05:54.237Z,54881.09
2022-11-21T14:08:25.940Z,54926.84
2022-11-21T14:10:56.280Z,54948.72
2022-11-21T14:13:32.660Z,54910.91
2022-11-21T14:16:20.824Z,54904.94
2022-11-21T14:18:52.041Z,54934.78
2022-11-21T14:21:26.915Z,55002.41
2022-11-21T14:23:58.737Z,55012.34
2022-11-21T14:26:29.961Z,55012.34
2022-11-21T14:29:22.467Z,55137.66
2022-11-21T14:31:52.002Z,55034.22
2022-11-21T14:34:30.275Z,55070.03
2022-11-21T14:37:01.595Z,55054.13
2022-11-21T14:39:39.059Z,55109.81
2022-11-21T14:42:15.443Z,55169.50
2022-11-21T14:44:44.924Z,55163.53
2022-11-21T14:47:24.989Z,55260.97
2022-11-21T14:50:07.068Z,55225.19
2022-11-21T14:52:36.709Z,55350.50
2022-11-21T14:55:29.878Z,55374.38
2022-11-21T14:57:58.217Z,55451.94
2022-11-21T15:00:59.177Z,55515.59
2022-11-21T15:03:21.659Z,55563.34
2022-11-21T15:06:04.697Z,55581.25
2022-11-21T15:11:26.436Z,55621.03
2022-11-21T15:14:17.219Z,55730.44
2022-11-21T15:16:49.223Z,55716.50
2022-11-21T15:19:24.085Z,55772.22
2022-11-21T15:21:56.562Z,55760.28
2022-11-21T15:24:41.813Z,55780.19
2022-11-21T15:27:35.387Z,55746.34
2022-11-21T15:30:06.743Z,55710.56
2022-11-21T15:32:35.443Z,55766.25
2022-11-21T15:35:31.910Z,55766.25
2022-11-21T15:38:02.648Z,55714.53
2022-11-21T15:40:31.831Z,55742.38
2022-11-21T15:43:02.150Z,55752.31
2022-11-21T15:45:31.142Z,55821.94
2022-11-21T15:48:00.361Z,55859.75
2022-11-21T15:50:28.851Z,55782.16
2022-11-21T15:52:57.642Z,55766.25
2022-11-21T15:55:29.914Z,55782.16
2022-11-21T15:57:58.383Z,55712.53
2022-11-21T16:00:27.169Z,55734.41
2022-11-21T16:02:56.148Z,55887.59
2022-11-21T16:05:25.156Z,55929.38
2022-11-21T16:07:53.641Z,55867.72
2022-11-21T16:10:27.749Z,55875.66
2022-11-21T16:12:58.022Z,55861.75
2022-11-21T16:15:26.566Z,55806.03
2022-11-21T16:17:55.267Z,55728.44
2022-11-21T16:20:24.422Z,55758.28
2022-11-21T16:22:53.412Z,55837.88
2022-11-21T16:25:21.942Z,55821.94
2022-11-21T16:27:50.328Z,55861.75
2022-11-21T16:30:20.494Z,55921.44
2022-11-21T16:32:48.992Z,55925.41
2022-11-21T16:35:17.864Z,56016.94
2022-11-21T16:37:47.247Z,56042.78
2022-11-21T16:40:16.039Z,56020.91
2022-11-21T16:42:44.728Z,56024.88
2022-11-21T16:45:13.242Z,56076.59
2022-11-21T16:47:48.407Z,56058.69
2022-11-21T16:50:18.246Z,56092.53
2022-11-21T16:52:46.642Z,56076.59
2022-11-21T16:55:15.259Z,56048.75
2022-11-21T16:57:44.070Z,55929.38
2022-11-21T17:00:13.760Z,56064.69
2022-11-21T17:02:43.801Z,56030.84
2022-11-21T17:05:12.429Z,55941.31
2022-11-21T17:07:41.278Z,56122.38
2022-11-21T17:10:10.639Z,56239.75
2022-11-21T17:12:39.838Z,56184.06
2022-11-21T17:15:10.930Z,56257.66
2022-11-21T17:17:40.292Z,56275.56
2022-11-21T17:20:11.632Z,56389.00
2022-11-21T17:22:40.215Z,56357.16
2022-11-21T17:25:09.624Z,56251.69
2022-11-21T17:27:38.192Z,56394.97
2022-11-21T17:30:07.877Z,56299.44
2022-11-21T17:32:36.886Z,56578.03
2022-11-21T17:35:07.184Z,56474.53
2022-11-21T17:37:37.056Z,56442.72
2022-11-21T17:40:10.989Z,56357.16
2022-11-21T17:42:41.159Z,56197.97
2022-11-21T17:45:10.491Z,56297.47
2022-11-21T17:47:41.219Z,56323.31
2022-11-21T17:50:10.155Z,56337.25
2022-11-21T17:52:40.063Z,56353.16
2022-11-21T17:55:08.881Z,56237.78
2022-11-21T17:57:37.829Z,56281.53
2022-11-21T18:00:07.375Z,56239.75
2022-11-21T18:02:36.956Z,56261.66
2022-11-21T18:05:06.071Z,56289.50
2022-11-21T18:07:35.644Z,56303.44
2022-11-21T18:10:35.065Z,56098.50
2022-11-21T18:12:54.595Z,56227.81
2022-11-21T18:15:23.238Z,56148.22
2022-11-21T18:17:51.842Z,56188.03
2022-11-21T18:20:20.903Z,56196.00
2022-11-21T18:22:50.154Z,56231.81
2022-11-21T18:25:20.251Z,56164.16
2022-11-21T18:27:54.511Z,56273.59
2022-11-21T18:30:23.408Z,56116.41
2022-11-21T18:32:52.256Z,56160.19
2022-11-21T18:35:20.791Z,56100.47
2022-11-21T18:37:49.404Z,56018.91
2022-11-21T18:40:20.631Z,56058.69
2022-11-21T18:42:49.079Z,56084.56
2022-11-21T18:45:17.665Z,56096.50
2022-11-21T18:47:47.841Z,56223.84
2022-11-21T18:50:17.772Z,56108.44
2022-11-21T18:52:47.088Z,56136.28
2022-11-21T18:55:15.764Z,56205.94
2022-11-21T18:57:46.949Z,56174.09
2022-11-21T19:00:16.430Z,56227.81
2022-11-21T19:02:45.485Z,56367.09
2022-11-21T19:05:20.187Z,56570.06
2022-11-21T19:07:49.480Z,56631.75
2022-11-21T19:10:41.848Z,56804.88
2022-11-21T19:13:11.558Z,56999.91
2022-11-21T19:15:42.592Z,57230.75
2022-11-21T19:18:12.329Z,57330.28
2022-11-21T19:20:42.818Z,57573.09
2022-11-21T19:23:12.819Z,57782.09
2022-11-21T19:25:41.613Z,58122.50
2022-11-21T19:28:11.628Z,58389.28
2022-11-21T19:30:41.844Z,58656.06
2022-11-21T19:33:10.530Z,59126.00
2022-11-21T19:35:39.059Z,59402.81
2022-11-21T19:38:08.003Z,59988.38
2022-11-21T19:40:51.593Z,60639.78
2022-11-21T19:43:21.505Z,61088.06
2022-11-21T19:45:55.048Z,61648.00
2022-11-21T19:48:26.651Z,62132.31
2022-11-21T19:50:58.734Z,62086.47
2022-11-21T19:53:28.587Z,62429.28
2022-11-21T19:55:57.199Z,62959.53
2022-11-21T19:58:27.720Z,63352.31
2022-11-21T20:00:56.976Z,63631.47
2022-11-21T20:03:26.623Z,64143.97
2022-11-21T20:06:03.176Z,64846.03
2022-11-21T20:08:34.573Z,65566.19
2022-11-21T20:11:10.556Z,66879.25
2022-11-21T20:13:42.056Z,67677.69
2022-11-21T20:16:19.182Z,68546.22
2022-11-21T20:18:48.811Z,69458.91
2022-11-21T20:21:18.867Z,70931.31
2022-11-21T20:23:48.571Z,71698.75
2022-11-21T20:26:18.844Z,72978.16
2022-11-21T20:28:50.044Z,73490.06
2022-11-21T20:31:21.310Z,75026.22
2022-11-21T20:33:52.495Z,75538.44
2022-11-21T20:36:22.972Z,75794.56
2022-11-21T20:38:53.908Z,76306.91
2022-11-21T20:41:23.962Z,77075.53
2022-11-21T20:44:44.691Z,77588.03
2022-11-21T20:46:45.036Z,78613.28
2022-11-21T20:49:13.862Z,79126.03
2022-11-21T20:54:32.821Z,80408.22
2022-11-21T20:57:01.992Z,80921.25
2022-11-21T20:59:32.553Z,81177.78
2022-11-21T21:02:02.305Z,81690.91
2022-11-21T21:04:31.029Z,81947.50
2022-11-21T21:07:00.304Z,82460.72
2022-11-21T21:09:29.249Z,82974.03
2022-11-21T21:11:58.071Z,83744.16
2022-11-21T21:14:27.378Z,84000.91
2022-11-21T21:16:57.430Z,84257.66
2022-11-21T21:19:26.182Z,84771.25
2022-11-21T21:21:54.947Z,85541.78
2022-11-21T21:24:23.854Z,85798.66
2022-11-21T21:26:52.848Z,86312.47
2022-11-21T21:29:25.115Z,86826.34
2022-11-21T21:31:54.230Z,87083.34
2022-11-21T21:34:24.861Z,87340.31
2022-11-21T21:36:54.012Z,87597.34
2022-11-21T21:39:23.134Z,87854.38
2022-11-21T21:41:52.066Z,88368.50
2022-11-21T21:44:20.855Z,88625.56
2022-11-21T21:46:49.974Z,88882.69
2022-11-21T21:49:19.017Z,89139.81
2022-11-21T21:51:49.145Z,89396.97
2022-11-21T21:54:20.189Z,89911.31
2022-11-21T21:56:49.799Z,90168.50
2022-11-21T21:59:19.988Z,89911.31
2022-11-21T22:01:49.650Z,90168.50
2022-11-21T22:04:18.582Z,90168.50
2022-11-21T22:06:49.869Z,90425.72
2022-11-21T22:09:18.674Z,90425.72
2022-11-21T22:11:47.475Z,90940.22
2022-11-21T22:14:17.733Z,91197.50
2022-11-21T22:16:46.889Z,91197.50
2022-11-21T22:19:16.746Z,91454.81
2022-11-21T22:21:45.880Z,91969.47
2022-11-21T22:24:26.634Z,92226.81
2022-11-21T22:26:56.146Z,92484.19
2022-11-21T22:29:25.593Z,92484.19
2022-11-21T22:31:54.317Z,92741.59
2022-11-21T22:34:23.471Z,93256.44
2022-11-21T22:36:52.479Z,93256.44
2022-11-21T22:39:23.069Z,93771.38
2022-11-21T22:41:56.971Z,93771.38
2022-11-21T22:44:28.832Z,94028.84
2022-11-21T22:46:58.141Z,94286.38
2022-11-21T22:49:27.171Z,94286.38
2022-11-21T22:51:56.079Z,94286.38
2022-11-21T22:54:26.905Z,94543.91
2022-11-21T22:56:56.670Z,94543.91
2022-11-21T22:59:25.709Z,94543.91
2022-11-21T23:01:54.891Z,94801.44
2022-11-21T23:04:23.639Z,95059.00
2022-11-21T23:06:52.545Z,95316.59
2022-11-21T23:09:21.551Z,95316.59
2022-11-21T23:11:51.595Z,95574.19
2022-11-21T23:14:20.655Z,95831.81
2022-11-21T23:16:49.173Z,95831.81
2022-11-21T23:19:17.843Z,96089.47
2022-11-21T23:21:47.103Z,96347.13
2022-11-21T23:24:15.986Z,96347.13
2022-11-21T23:26:45.211Z,96347.13
2022-11-21T23:29:15.577Z,96604.81
2022-11-21T23:31:44.260Z,96862.50
2022-11-21T23:34:13.167Z,96862.50
2022-11-21T23:36:43.090Z,96862.50
2022-11-21T23:39:11.737Z,97120.22
2022-11-21T23:41:40.636Z,97120.22
2022-11-21T23:44:09.434Z,97377.97
2022-11-21T23:46:39.362Z,97635.72
2022-11-21T23:49:08.127Z,97635.72
2022-11-21T23:51:36.730Z,97635.72
2022-11-21T23:54:05.619Z,97893.50
2022-11-21T23:56:34.524Z,98151.31
2022-11-21T23:59:03.445Z,98151.31
